createdAt,value
2022-11-15T00:01:27.857Z,98718.63
2022-11-15T00:03:54.511Z,98706.84
2022-11-15T00:06:21.223Z,98704.81
2022-11-15T00:08:48.031Z,98711.84
2022-11-15T00:11:14.837Z,98700.38
2022-11-15T00:13:41.614Z,98699.16
2022-11-15T00:16:09.778Z,98692.78
2022-11-15T00:18:38.569Z,98688.78
2022-11-15T00:21:07.261Z,98686.78
2022-11-15T00:23:34.373Z,98687.00
2022-11-15T00:26:01.147Z,98682.38
2022-11-15T00:28:27.859Z,98684.41
2022-11-15T00:30:54.591Z,98701.06
2022-11-15T00:33:21.268Z,98699.94
2022-11-15T00:35:49.277Z,98709.00
2022-11-15T00:38:15.964Z,98702.44
2022-11-15T00:40:42.624Z,98701.50
2022-11-15T00:43:09.282Z,98703.56
2022-11-15T00:45:36.025Z,98696.53
2022-11-15T00:48:02.834Z,98693.47
2022-11-15T00:50:29.463Z,98687.22
2022-11-15T00:52:57.659Z,98688.78
2022-11-15T00:55:24.340Z,98692.44
2022-11-15T00:57:50.974Z,98686.19
2022-11-15T01:00:18.142Z,98691.78
2022-11-15T01:02:44.738Z,98688.47
2022-11-15T01:05:11.542Z,98688.78
2022-11-15T01:07:38.266Z,98686.53
2022-11-15T01:10:07.468Z,98686.78
2022-11-15T01:12:34.266Z,98702.19
2022-11-15T01:15:00.960Z,98692.44
2022-11-15T01:17:27.888Z,98688.47
2022-11-15T01:19:54.552Z,98693.00
2022-11-15T01:22:21.258Z,98685.75
2022-11-15T01:24:47.943Z,98676.09
2022-11-15T01:27:16.124Z,98674.16
2022-11-15T01:29:42.812Z,98676.34
2022-11-15T01:32:09.476Z,98669.09
2022-11-15T01:34:36.084Z,98664.19
2022-11-15T01:37:02.973Z,98653.97
2022-11-15T01:39:29.641Z,98654.75
2022-11-15T01:41:56.348Z,98669.06
2022-11-15T01:44:54.444Z,98656.88
2022-11-15T01:47:24.571Z,98657.84
2022-11-15T01:49:55.443Z,98653.41
2022-11-15T01:52:25.081Z,98662.63
2022-11-15T01:54:56.239Z,98648.69
2022-11-15T01:57:23.309Z,98648.75
2022-11-15T01:59:50.029Z,98651.75
2022-11-15T02:02:18.098Z,98638.81
2022-11-15T02:04:46.789Z,98643.19
2022-11-15T02:07:16.704Z,98633.69
2022-11-15T02:09:44.990Z,98633.69
2022-11-15T02:12:14.666Z,98626.41
2022-11-15T02:14:45.609Z,98625.38
2022-11-15T02:17:32.387Z,98621.84
2022-11-15T02:20:31.711Z,98617.09
2022-11-15T02:23:34.743Z,98624.91
2022-11-15T02:26:29.992Z,98626.91
2022-11-15T02:29:03.412Z,98620.41
2022-11-15T02:31:37.800Z,98609.88
2022-11-15T02:34:09.595Z,98606.25
2022-11-15T02:36:43.399Z,98608.34
2022-11-15T02:39:19.848Z,98608.09
2022-11-15T02:41:51.738Z,98605.63
2022-11-15T02:44:24.475Z,98605.34
2022-11-15T02:56:35.688Z,98593.53
2022-11-15T02:59:14.643Z,98592.19
2022-11-15T03:01:56.112Z,98592.41
2022-11-15T03:04:33.115Z,98579.03
2022-11-15T03:07:08.681Z,98585.47
2022-11-15T03:09:41.580Z,98586.94
2022-11-15T03:12:16.922Z,98587.84
2022-11-15T03:14:51.096Z,98578.19
2022-11-15T03:17:24.555Z,98576.81
2022-11-15T03:19:54.141Z,98584.91
2022-11-15T03:22:23.758Z,98586.78
2022-11-15T03:24:55.136Z,98580.19
2022-11-15T03:27:28.464Z,98580.59
2022-11-15T03:30:00.654Z,98579.59
2022-11-15T03:32:30.381Z,98574.25
2022-11-15T03:34:59.877Z,98581.22
2022-11-15T03:37:34.383Z,98572.78
2022-11-15T03:40:01.370Z,98574.53
2022-11-15T03:42:33.627Z,98567.50
2022-11-15T03:45:04.744Z,98568.97
2022-11-15T03:47:36.700Z,98569.84
2022-11-15T03:50:08.441Z,98578.50
2022-11-15T03:52:35.962Z,98577.91
2022-11-15T03:55:04.762Z,98580.34
2022-11-15T03:57:32.652Z,98570.16
2022-11-15T03:59:59.295Z,98562.00
2022-11-15T04:02:25.840Z,98566.38
2022-11-15T04:04:52.358Z,98575.19
2022-11-15T04:07:19.033Z,98562.75
2022-11-15T04:09:46.159Z,98567.16
2022-11-15T04:12:12.654Z,98567.41
2022-11-15T04:14:40.487Z,98561.50
2022-11-15T04:17:07.010Z,98555.19
2022-11-15T04:19:33.492Z,98554.97
2022-11-15T04:22:00.179Z,98561.88
2022-11-15T04:24:26.679Z,98559.28
2022-11-15T04:26:53.165Z,98547.94
2022-11-15T04:29:19.661Z,98552.47
2022-11-15T04:31:47.511Z,98554.06
2022-11-15T04:34:14.154Z,98558.63
2022-11-15T04:36:40.795Z,98552.94
2022-11-15T04:39:07.840Z,98552.16
2022-11-15T04:41:34.562Z,98561.53
2022-11-15T04:44:01.138Z,98557.13
2022-11-15T04:46:27.979Z,98555.56
2022-11-15T04:48:58.875Z,98554.06
2022-11-15T04:51:26.034Z,98553.66
2022-11-15T04:53:52.715Z,98561.91
2022-11-15T04:56:20.246Z,98564.38
2022-11-15T04:58:49.566Z,98564.94
2022-11-15T05:01:16.507Z,98558.69
2022-11-15T05:03:43.171Z,98563.66
2022-11-15T05:06:11.165Z,98565.56
2022-11-15T05:08:37.698Z,98565.66
2022-11-15T05:11:04.364Z,98575.81
2022-11-15T05:13:31.164Z,98574.13
2022-11-15T05:15:57.898Z,98575.47
2022-11-15T05:18:24.431Z,98575.19
2022-11-15T05:20:51.074Z,98579.28
2022-11-15T05:23:18.926Z,98582.19
2022-11-15T05:25:45.573Z,98580.25
2022-11-15T05:28:12.127Z,98581.72
2022-11-15T05:30:38.622Z,98586.47
2022-11-15T05:33:05.659Z,98580.72
2022-11-15T05:35:38.942Z,98586.63
2022-11-15T05:38:05.476Z,98582.44
2022-11-15T05:40:34.462Z,98585.03
2022-11-15T05:43:03.992Z,98592.06
2022-11-15T05:45:30.855Z,98586.63
2022-11-15T05:47:59.791Z,98588.53
2022-11-15T05:50:26.979Z,98584.91
2022-11-15T05:52:55.051Z,98578.69
2022-11-15T05:55:21.909Z,98582.66
2022-11-15T05:57:49.840Z,98574.50
2022-11-15T06:00:16.841Z,98577.69
2022-11-15T06:02:43.482Z,98575.97
2022-11-15T06:05:10.162Z,98570.88
2022-11-15T06:07:36.736Z,98576.16
2022-11-15T06:10:03.768Z,98575.38
2022-11-15T06:12:30.301Z,98579.22
2022-11-15T06:14:58.305Z,98577.28
2022-11-15T06:17:24.819Z,98578.41
2022-11-15T06:19:51.465Z,98583.41
2022-11-15T06:22:17.952Z,98583.25
2022-11-15T06:24:44.593Z,98573.19
2022-11-15T06:27:11.867Z,98580.06
2022-11-15T06:29:38.390Z,98574.66
2022-11-15T06:32:06.744Z,98579.75
2022-11-15T06:34:33.354Z,98568.88
2022-11-15T06:37:00.001Z,98573.84
2022-11-15T06:39:26.512Z,98563.13
2022-11-15T06:41:53.060Z,98562.00
2022-11-15T06:44:19.547Z,98567.91
2022-11-15T06:46:46.061Z,98563.94
2022-11-15T06:49:14.079Z,98563.47
2022-11-15T06:51:40.558Z,98567.28
2022-11-15T06:54:07.092Z,98570.81
2022-11-15T06:56:34.679Z,98573.53
2022-11-15T06:59:01.234Z,98579.59
2022-11-15T07:01:27.824Z,98576.78
2022-11-15T07:03:54.357Z,98582.22
2022-11-15T07:06:22.395Z,98578.81
2022-11-15T07:08:48.874Z,98572.47
2022-11-15T07:11:15.355Z,98572.81
2022-11-15T07:13:42.001Z,98579.69
2022-11-15T07:16:10.228Z,98587.38
2022-11-15T07:18:38.400Z,98594.75
2022-11-15T07:21:06.317Z,98590.09
2022-11-15T07:23:36.677Z,98597.91
2022-11-15T07:26:03.236Z,98593.94
2022-11-15T07:28:30.139Z,98593.94
2022-11-15T07:30:56.682Z,98593.47
2022-11-15T07:33:23.441Z,98592.03
2022-11-15T07:35:50.231Z,98601.88
2022-11-15T07:38:17.976Z,98601.34
2022-11-15T07:40:46.906Z,98594.59
2022-11-15T07:43:13.576Z,98598.22
2022-11-15T07:45:42.392Z,98593.50
2022-11-15T07:48:08.901Z,98584.47
2022-11-15T07:50:35.644Z,98589.63
2022-11-15T07:53:02.300Z,98582.75
2022-11-15T07:55:29.553Z,98570.91
2022-11-15T07:58:02.851Z,98576.72
2022-11-15T08:00:29.545Z,98575.13
2022-11-15T08:03:02.548Z,98568.81
2022-11-15T08:05:29.116Z,98572.88
2022-11-15T08:07:56.019Z,98575.25
2022-11-15T08:10:22.798Z,98572.94
2022-11-15T08:12:49.390Z,98572.91
2022-11-15T08:15:17.331Z,98568.78
2022-11-15T08:17:43.978Z,98566.38
2022-11-15T08:20:11.477Z,98554.69
2022-11-15T08:22:38.187Z,98559.34
2022-11-15T08:25:05.255Z,98544.91
2022-11-15T08:27:31.810Z,98538.34
2022-11-15T08:29:59.604Z,98534.00
2022-11-15T08:32:27.670Z,98542.72
2022-11-15T08:34:54.196Z,98541.69
2022-11-15T08:37:20.689Z,98538.38
2022-11-15T08:39:47.376Z,98537.84
2022-11-15T08:42:19.512Z,98539.13
2022-11-15T08:44:46.530Z,98532.63
2022-11-15T08:47:13.302Z,98537.03
2022-11-15T08:49:41.151Z,98542.16
2022-11-15T08:52:07.707Z,98530.19
2022-11-15T08:54:34.266Z,98531.41
2022-11-15T08:57:01.539Z,98542.75
2022-11-15T08:59:28.340Z,98529.22
2022-11-15T09:01:54.920Z,98525.34
2022-11-15T09:04:21.554Z,98526.94
2022-11-15T09:06:49.636Z,98531.25
2022-11-15T09:09:16.759Z,98525.97
2022-11-15T09:11:43.429Z,98529.28
2022-11-15T09:14:11.620Z,98512.88
2022-11-15T09:16:38.309Z,98509.94
2022-11-15T09:19:11.353Z,98517.59
2022-11-15T09:21:38.299Z,98520.25
2022-11-15T09:24:06.731Z,98525.59
2022-11-15T09:26:33.299Z,98532.31
2022-11-15T09:28:59.812Z,98524.97
2022-11-15T09:31:26.334Z,98521.00
2022-11-15T09:33:53.673Z,98524.34
2022-11-15T09:36:20.213Z,98523.69
2022-11-15T09:38:46.879Z,98519.56
2022-11-15T09:41:39.477Z,98525.38
2022-11-15T09:44:41.877Z,98525.94
2022-11-15T09:47:36.748Z,98524.66
2022-11-15T09:50:10.635Z,98519.63
2022-11-15T09:52:39.950Z,98525.50
2022-11-15T09:55:10.860Z,98519.91
2022-11-15T09:57:45.467Z,98517.91
2022-11-15T10:03:14.957Z,98513.06
2022-11-15T10:05:43.523Z,98506.56
2022-11-15T10:08:32.331Z,98514.38
2022-11-15T10:11:30.517Z,98509.28
2022-11-15T10:13:51.065Z,98513.19
2022-11-15T10:16:42.739Z,98504.72
2022-11-15T10:19:22.178Z,98501.69
2022-11-15T10:22:00.275Z,98491.88
2022-11-15T10:24:30.032Z,98495.06
2022-11-15T10:26:57.397Z,98486.69
2022-11-15T10:29:27.059Z,98486.63
2022-11-15T10:31:53.879Z,98484.94
2022-11-15T10:34:22.324Z,98488.84
2022-11-15T10:36:56.008Z,98477.97
2022-11-15T10:39:23.134Z,98477.47
2022-11-15T10:41:49.984Z,98470.53
2022-11-15T10:44:22.540Z,98481.94
2022-11-15T10:47:06.740Z,98476.38
2022-11-15T10:49:34.439Z,98471.19
2022-11-15T10:52:03.820Z,98467.66
2022-11-15T10:54:35.666Z,98467.13
2022-11-15T10:57:08.292Z,98467.16
2022-11-15T10:59:39.358Z,98458.56
2022-11-15T11:02:38.668Z,98453.28
2022-11-15T11:05:26.528Z,98453.22
2022-11-15T11:07:58.077Z,98458.72
2022-11-15T11:13:15.915Z,98439.22
2022-11-15T11:15:45.414Z,98442.78
2022-11-15T11:18:20.692Z,98434.13
2022-11-15T11:20:56.446Z,98447.31
2022-11-15T11:23:43.545Z,98445.97
2022-11-15T11:26:28.242Z,98442.09
2022-11-15T11:29:03.166Z,98445.78
2022-11-15T11:31:35.660Z,98438.66
2022-11-15T11:34:12.327Z,98436.94
2022-11-15T11:36:46.836Z,98438.47
2022-11-15T11:39:25.043Z,98433.78
2022-11-15T11:42:00.310Z,98429.19
2022-11-15T11:44:35.019Z,98421.69
2022-11-15T11:47:02.738Z,98419.81
2022-11-15T11:49:39.651Z,98425.22
2022-11-15T11:52:15.863Z,98413.66
2022-11-15T11:54:51.056Z,98415.31
2022-11-15T11:57:26.588Z,98415.53
2022-11-15T12:00:00.180Z,98402.22
2022-11-15T12:02:31.156Z,98400.69
2022-11-15T12:05:04.996Z,98398.31
2022-11-15T12:07:35.747Z,98389.44
2022-11-15T12:10:12.464Z,98383.94
2022-11-15T12:12:45.271Z,98389.00
2022-11-15T12:15:16.835Z,98383.47
2022-11-15T12:17:44.309Z,98387.16
2022-11-15T12:20:18.357Z,98371.59
2022-11-15T12:22:54.169Z,98371.59
2022-11-15T12:25:23.884Z,98365.81
2022-11-15T12:27:55.734Z,98355.66
2022-11-15T12:30:23.681Z,98350.91
2022-11-15T12:32:53.089Z,98352.09
2022-11-15T12:35:27.443Z,98352.47
2022-11-15T12:37:56.412Z,98344.59
2022-11-15T12:40:39.246Z,98351.56
2022-11-15T12:43:41.473Z,98341.75
2022-11-15T12:46:13.987Z,98344.50
2022-11-15T12:48:59.082Z,98350.03
2022-11-15T12:52:03.948Z,98334.03
2022-11-15T12:55:04.176Z,98336.97
2022-11-15T12:57:41.930Z,98330.81
2022-11-15T13:00:45.249Z,98325.81
2022-11-15T13:03:29.267Z,98309.84
2022-11-15T13:06:08.701Z,98304.03
2022-11-15T13:08:48.063Z,98304.47
2022-11-15T13:11:47.439Z,98306.81
2022-11-15T13:14:43.493Z,98306.03
2022-11-15T13:17:39.909Z,98302.50
2022-11-15T13:20:23.254Z,98291.03
2022-11-15T13:22:51.445Z,98288.63
2022-11-15T13:25:28.248Z,98292.50
2022-11-15T13:27:56.216Z,98289.88
2022-11-15T13:30:25.574Z,98298.88
2022-11-15T13:32:53.785Z,98296.50
2022-11-15T13:35:23.097Z,98298.78
2022-11-15T13:37:50.283Z,98294.44
2022-11-15T13:40:23.011Z,98296.50
2022-11-15T13:42:49.621Z,98290.19
2022-11-15T13:45:19.115Z,98289.31
2022-11-15T13:47:45.870Z,98289.31
2022-11-15T13:50:13.599Z,98284.09
2022-11-15T13:52:43.626Z,98283.25
2022-11-15T13:55:16.051Z,98277.03
2022-11-15T13:57:45.142Z,98275.88
2022-11-15T14:00:27.880Z,98267.66
2022-11-15T14:02:55.271Z,98273.88
2022-11-15T14:05:24.334Z,98283.53
2022-11-15T14:07:55.734Z,98274.88
2022-11-15T14:10:30.785Z,98270.91
2022-11-15T14:12:57.865Z,98256.38
2022-11-15T14:15:32.153Z,98260.22
2022-11-15T14:17:59.145Z,98260.56
2022-11-15T14:20:29.496Z,98244.09
2022-11-15T14:22:58.076Z,98245.22
2022-11-15T14:25:26.130Z,98240.16
2022-11-15T14:28:17.401Z,98236.63
2022-11-15T14:30:46.583Z,98241.69
2022-11-15T14:33:20.812Z,98242.03
2022-11-15T14:35:47.893Z,98244.28
2022-11-15T14:38:14.435Z,98241.78
2022-11-15T14:40:41.670Z,98235.75
2022-11-15T14:43:10.209Z,98228.69
2022-11-15T14:45:36.891Z,98233.28
2022-11-15T14:48:05.136Z,98237.88
2022-11-15T14:50:33.558Z,98228.44
2022-11-15T14:53:00.513Z,98236.56
2022-11-15T14:55:28.587Z,98225.97
2022-11-15T14:57:55.571Z,98239.94
2022-11-15T15:00:22.947Z,98243.78
2022-11-15T15:02:52.510Z,98226.47
2022-11-15T15:05:23.219Z,98232.97
2022-11-15T15:07:50.576Z,98227.47
2022-11-15T15:10:38.809Z,98226.97
2022-11-15T15:13:05.803Z,98228.03
2022-11-15T15:15:34.169Z,98217.34
2022-11-15T15:18:00.842Z,98214.94
2022-11-15T15:20:28.755Z,98212.94
2022-11-15T15:22:55.306Z,98207.78
2022-11-15T15:25:24.113Z,98215.13
2022-11-15T15:27:50.738Z,98207.59
2022-11-15T15:30:17.952Z,98205.97
2022-11-15T15:32:45.032Z,98210.94
2022-11-15T15:35:13.437Z,98210.09
2022-11-15T15:37:41.712Z,98206.16
2022-11-15T15:40:15.345Z,98201.00
2022-11-15T15:42:41.889Z,98202.09
2022-11-15T15:45:09.732Z,98204.31
2022-11-15T15:47:36.730Z,98205.41
2022-11-15T15:50:03.998Z,98201.03
2022-11-15T15:52:30.509Z,98200.19
2022-11-15T15:54:58.379Z,98201.28
2022-11-15T15:57:24.948Z,98199.63
2022-11-15T15:59:51.602Z,98198.78
2022-11-15T16:02:18.103Z,98197.97
2022-11-15T16:04:44.762Z,98187.38
2022-11-15T16:07:17.877Z,98193.09
2022-11-15T16:09:44.496Z,98188.75
2022-11-15T16:12:12.393Z,98180.50
2022-11-15T16:14:38.920Z,98178.47
2022-11-15T16:17:05.429Z,98179.97
2022-11-15T16:19:32.013Z,98172.16
2022-11-15T16:21:58.693Z,98172.50
2022-11-15T16:24:25.219Z,98177.94
2022-11-15T16:26:52.768Z,98172.44
2022-11-15T16:29:20.709Z,98169.63
2022-11-15T16:31:47.203Z,98162.59
2022-11-15T16:34:13.762Z,98162.59
2022-11-15T16:36:40.340Z,98158.66
2022-11-15T16:39:07.072Z,98147.75
2022-11-15T16:41:33.754Z,98143.47
2022-11-15T16:44:00.509Z,98132.84
2022-11-15T16:46:28.614Z,98137.06
2022-11-15T16:48:55.394Z,98129.66
2022-11-15T16:51:22.789Z,98129.31
2022-11-15T16:53:49.558Z,98124.66
2022-11-15T16:56:22.481Z,98119.19
2022-11-15T16:58:48.998Z,98119.63
2022-11-15T17:01:18.707Z,98118.06
2022-11-15T17:03:46.723Z,98116.13
2022-11-15T17:06:13.571Z,98106.78
2022-11-15T17:08:40.169Z,98105.22
2022-11-15T17:11:07.312Z,98104.84
2022-11-15T17:13:34.024Z,98105.69
2022-11-15T17:16:05.622Z,98103.41
2022-11-15T17:18:32.427Z,98102.63
2022-11-15T17:21:04.224Z,98092.84
2022-11-15T17:23:30.803Z,98096.31
2022-11-15T17:26:17.678Z,98092.38
2022-11-15T17:28:45.615Z,98084.91
2022-11-15T17:31:14.432Z,98092.66
2022-11-15T17:33:41.013Z,98081.34
2022-11-15T17:36:12.314Z,98085.66
2022-11-15T17:38:41.537Z,98077.47
2022-11-15T17:41:11.795Z,98077.03
2022-11-15T17:43:38.704Z,98079.41
2022-11-15T17:46:07.301Z,98082.97
2022-11-15T17:48:34.687Z,98069.34
2022-11-15T17:51:03.493Z,98064.31
2022-11-15T17:53:35.699Z,98053.75
2022-11-15T17:56:03.223Z,98053.41
2022-11-15T17:58:30.449Z,98049.53
2022-11-15T18:01:05.863Z,98048.38
2022-11-15T18:03:35.291Z,98032.81
2022-11-15T18:06:02.316Z,98039.47
2022-11-15T18:08:29.382Z,98039.09
2022-11-15T18:11:05.515Z,98027.00
2022-11-15T18:13:32.309Z,98032.06
2022-11-15T18:15:59.129Z,98024.63
2022-11-15T18:18:25.707Z,98026.84
2022-11-15T18:20:59.795Z,98022.50
2022-11-15T18:23:26.332Z,98023.53
2022-11-15T18:25:53.010Z,98022.22
2022-11-15T18:28:21.045Z,98029.13
2022-11-15T18:30:47.616Z,98018.91
2022-11-15T18:33:14.168Z,98024.97
2022-11-15T18:35:40.711Z,98012.03
2022-11-15T18:38:07.238Z,98012.31
2022-11-15T18:40:33.807Z,98005.53
2022-11-15T18:43:00.309Z,98018.63
2022-11-15T18:45:28.207Z,98018.03
2022-11-15T18:47:54.784Z,98009.03
2022-11-15T18:50:21.323Z,98013.53
2022-11-15T18:52:47.815Z,98010.47
2022-11-15T18:55:14.617Z,98010.88
2022-11-15T18:57:41.152Z,98011.41
2022-11-15T19:00:09.189Z,98009.47
2022-11-15T19:02:37.117Z,98011.81
2022-11-15T19:05:03.882Z,98012.19
2022-11-15T19:07:30.536Z,98017.63
2022-11-15T19:09:57.087Z,98010.19
2022-11-15T19:12:23.775Z,98006.22
2022-11-15T19:14:50.330Z,98001.44
2022-11-15T19:17:16.852Z,97999.00
2022-11-15T19:19:44.757Z,98005.94
2022-11-15T19:22:11.337Z,97993.75
2022-11-15T19:24:37.870Z,98000.25
2022-11-15T19:27:04.658Z,97996.31
2022-11-15T19:29:31.185Z,97999.31
2022-11-15T19:31:57.868Z,98006.19
2022-11-15T19:34:24.415Z,98008.47
2022-11-15T19:36:52.441Z,98007.94
2022-11-15T19:39:18.954Z,97995.41
2022-11-15T19:41:46.116Z,98002.69
2022-11-15T19:44:13.319Z,97996.03
2022-11-15T19:46:40.450Z,97991.28
2022-11-15T19:49:07.058Z,97984.19
2022-11-15T19:51:33.928Z,97989.56
2022-11-15T19:54:03.439Z,97984.13
2022-11-15T19:56:29.960Z,97979.81
2022-11-15T19:58:56.748Z,97986.84
2022-11-15T20:01:25.085Z,97978.31
2022-11-15T20:03:53.555Z,97981.03
2022-11-15T20:06:22.236Z,97976.75
2022-11-15T20:08:49.041Z,97980.59
2022-11-15T20:11:17.558Z,97978.69
2022-11-15T20:13:44.367Z,97980.59
2022-11-15T20:16:15.936Z,97976.59
2022-11-15T20:18:42.589Z,97973.78
2022-11-15T20:21:09.501Z,97970.97
2022-11-15T20:23:36.051Z,97967.84
2022-11-15T20:26:02.623Z,97968.09
2022-11-15T20:28:30.814Z,97975.81
2022-11-15T20:30:59.927Z,97966.06
2022-11-15T20:33:27.493Z,97966.78
2022-11-15T20:35:54.492Z,97962.50
2022-11-15T20:38:21.702Z,97971.78
2022-11-15T20:40:49.233Z,97966.34
2022-11-15T20:43:18.149Z,97966.34
2022-11-15T20:45:47.511Z,97957.06
2022-11-15T20:48:14.610Z,97951.31
2022-11-15T20:50:43.749Z,97952.56
2022-11-15T20:53:11.607Z,97952.28
2022-11-15T20:55:41.842Z,97947.72
2022-11-15T20:58:09.119Z,97952.47
2022-11-15T21:00:35.809Z,97942.38
2022-11-15T21:03:04.488Z,97937.34
2022-11-15T21:05:31.023Z,97932.69
2022-11-15T21:07:57.661Z,97921.13
2022-11-15T21:10:24.222Z,97932.09
2022-11-15T21:12:51.233Z,97917.75
2022-11-15T21:15:17.899Z,97917.16
2022-11-15T21:17:44.461Z,97912.13
2022-11-15T21:20:12.878Z,97911.84
2022-11-15T21:22:40.110Z,97905.69
2022-11-15T21:25:07.204Z,97899.56
2022-11-15T21:27:33.796Z,97908.16
2022-11-15T21:30:00.319Z,97903.50
2022-11-15T21:32:26.883Z,97897.34
2022-11-15T21:34:53.425Z,97888.03
2022-11-15T21:37:21.370Z,97890.03
2022-11-15T21:39:47.927Z,97892.50
2022-11-15T21:42:14.457Z,97885.88
2022-11-15T21:44:40.953Z,97895.63
2022-11-15T21:47:07.488Z,97899.91
2022-11-15T21:49:33.990Z,97892.50
2022-11-15T21:52:00.645Z,97892.06
2022-11-15T21:54:28.530Z,97890.03
2022-11-15T21:56:55.020Z,97884.59
2022-11-15T21:59:21.547Z,97885.03
2022-11-15T22:01:48.050Z,97872.66
2022-11-15T22:04:15.191Z,97870.75
2022-11-15T22:06:41.741Z,97865.81
2022-11-15T22:09:08.397Z,97863.53
2022-11-15T22:11:36.332Z,97860.44
2022-11-15T22:14:03.122Z,97852.72
2022-11-15T22:16:29.677Z,97848.50
2022-11-15T22:18:56.275Z,97851.91
2022-11-15T22:21:22.900Z,97844.47
2022-11-15T22:23:49.515Z,97851.50
2022-11-15T22:26:22.182Z,97851.84
2022-11-15T22:28:52.095Z,97846.41
2022-11-15T22:31:18.959Z,97846.03
2022-11-15T22:33:45.593Z,97844.03
2022-11-15T22:36:12.797Z,97847.13
2022-11-15T22:38:39.693Z,97844.03
2022-11-15T22:41:06.609Z,97844.22
2022-11-15T22:43:33.354Z,97835.34
2022-11-15T22:46:02.729Z,97838.94
2022-11-15T22:48:33.200Z,97826.09
2022-11-15T22:51:01.048Z,97822.28
2022-11-15T22:53:28.455Z,97825.44
2022-11-15T22:55:57.078Z,97828.09
2022-11-15T22:58:26.123Z,97828.53
2022-11-15T23:00:54.790Z,97831.59
2022-11-15T23:03:23.573Z,97824.66
2022-11-15T23:05:50.427Z,97821.19
2022-11-15T23:08:18.418Z,97825.56
2022-11-15T23:10:45.713Z,97817.81
2022-11-15T23:13:13.906Z,97811.63
2022-11-15T23:15:40.477Z,97815.53
2022-11-15T23:18:07.057Z,97815.88
2022-11-15T23:20:43.377Z,97815.38
2022-11-15T23:23:10.930Z,97813.75
2022-11-15T23:25:37.549Z,97808.69
2022-11-15T23:28:05.329Z,97806.38
2022-11-15T23:30:34.562Z,97789.97
2022-11-15T23:33:01.288Z,97787.56
2022-11-15T23:35:27.908Z,97800.31
2022-11-15T23:37:55.896Z,97806.78
2022-11-15T23:40:22.456Z,97796.94
2022-11-15T23:42:49.041Z,97789.78
2022-11-15T23:45:15.707Z,97782.22
2022-11-15T23:47:43.348Z,97789.41
2022-11-15T23:50:10.550Z,97787.38
2022-11-15T23:52:37.234Z,97785.72
2022-11-15T23:55:06.268Z,97779.78
2022-11-15T23:57:32.879Z,97786.28
